sensor_id;sensor_type;location;lat;lon;timestamp;pressure;altitude;pressure_sealevel;temperature;humidity
7335;BME280;3708;42.632;23.378;2023-03-14T00:00:25;94525.19;;;7.35;37.76
7335;BME280;3708;42.632;23.378;2023-03-14T00:02:54;94521.19;;;7.64;37.12
7335;BME280;3708;42.632;23.378;2023-03-14T00:05:21;94509.56;;;7.70;37.10
7335;BME280;3708;42.632;23.378;2023-03-14T00:07:49;94500.66;;;7.85;37.25
7335;BME280;3708;42.632;23.378;2023-03-14T00:10:16;94489.81;;;7.92;36.91
7335;BME280;3708;42.632;23.378;2023-03-14T00:12:44;94488.69;;;7.84;37.50
7335;BME280;3708;42.632;23.378;2023-03-14T00:15:12;94491.25;;;7.98;37.90
7335;BME280;3708;42.632;23.378;2023-03-14T00:17:39;94484.00;;;7.95;37.41
7335;BME280;3708;42.632;23.378;2023-03-14T00:20:11;94486.97;;;8.02;37.55
7335;BME280;3708;42.632;23.378;2023-03-14T00:22:39;94484.53;;;8.05;37.05
7335;BME280;3708;42.632;23.378;2023-03-14T00:25:08;94476.47;;;8.15;36.69
7335;BME280;3708;42.632;23.378;2023-03-14T00:27:35;94458.81;;;7.90;36.80
7335;BME280;3708;42.632;23.378;2023-03-14T00:30:04;94451.56;;;7.87;36.77
7335;BME280;3708;42.632;23.378;2023-03-14T00:32:31;94448.97;;;7.87;36.89
7335;BME280;3708;42.632;23.378;2023-03-14T00:34:58;94449.56;;;7.84;37.23
7335;BME280;3708;42.632;23.378;2023-03-14T00:37:27;94441.38;;;7.77;37.81
7335;BME280;3708;42.632;23.378;2023-03-14T00:39:55;94442.19;;;7.64;37.85
7335;BME280;3708;42.632;23.378;2023-03-14T00:42:24;94438.41;;;7.70;37.78
7335;BME280;3708;42.632;23.378;2023-03-14T00:44:51;94444.94;;;7.59;37.79
7335;BME280;3708;42.632;23.378;2023-03-14T00:47:18;94441.06;;;7.56;37.91
7335;BME280;3708;42.632;23.378;2023-03-14T00:49:45;94427.38;;;7.51;37.94
7335;BME280;3708;42.632;23.378;2023-03-14T00:52:12;94439.03;;;7.53;38.01
7335;BME280;3708;42.632;23.378;2023-03-14T00:54:40;94431.63;;;7.47;38.69
7335;BME280;3708;42.632;23.378;2023-03-14T00:57:07;94433.34;;;7.16;38.44
7335;BME280;3708;42.632;23.378;2023-03-14T00:59:34;94434.88;;;7.17;38.37
7335;BME280;3708;42.632;23.378;2023-03-14T01:02:01;94440.00;;;7.08;38.11
7335;BME280;3708;42.632;23.378;2023-03-14T01:04:28;94432.38;;;7.12;38.14
7335;BME280;3708;42.632;23.378;2023-03-14T01:06:56;94435.72;;;7.26;37.57
7335;BME280;3708;42.632;23.378;2023-03-14T01:09:23;94432.28;;;7.17;37.34
7335;BME280;3708;42.632;23.378;2023-03-14T01:11:51;94431.69;;;7.20;37.46
7335;BME280;3708;42.632;23.378;2023-03-14T01:14:18;94424.75;;;7.29;37.46
7335;BME280;3708;42.632;23.378;2023-03-14T01:16:45;94430.53;;;7.26;38.05
7335;BME280;3708;42.632;23.378;2023-03-14T01:19:12;94425.31;;;7.26;38.15
7335;BME280;3708;42.632;23.378;2023-03-14T01:21:39;94423.97;;;7.15;38.42
7335;BME280;3708;42.632;23.378;2023-03-14T01:24:06;94421.00;;;7.08;38.59
7335;BME280;3708;42.632;23.378;2023-03-14T01:26:34;94413.81;;;7.27;38.37
7335;BME280;3708;42.632;23.378;2023-03-14T01:29:03;94404.25;;;7.36;38.62
7335;BME280;3708;42.632;23.378;2023-03-14T01:31:29;94400.97;;;7.44;38.16
7335;BME280;3708;42.632;23.378;2023-03-14T01:33:56;94401.63;;;7.14;39.20
7335;BME280;3708;42.632;23.378;2023-03-14T01:36:23;94396.97;;;7.24;39.04
7335;BME280;3708;42.632;23.378;2023-03-14T01:38:50;94403.69;;;7.25;39.18
7335;BME280;3708;42.632;23.378;2023-03-14T01:41:19;94400.50;;;6.65;39.50
7335;BME280;3708;42.632;23.378;2023-03-14T01:43:47;94400.59;;;5.87;41.26
7335;BME280;3708;42.632;23.378;2023-03-14T01:46:35;94392.53;;;6.02;40.83
7335;BME280;3708;42.632;23.378;2023-03-14T01:49:24;94391.78;;;6.15;41.33
7335;BME280;3708;42.632;23.378;2023-03-14T01:51:56;94395.84;;;6.08;40.94
7335;BME280;3708;42.632;23.378;2023-03-14T01:54:26;94387.38;;;6.30;40.03
7335;BME280;3708;42.632;23.378;2023-03-14T01:56:58;94382.38;;;6.33;40.04
7335;BME280;3708;42.632;23.378;2023-03-14T01:59:29;94377.75;;;6.57;40.04
7335;BME280;3708;42.632;23.378;2023-03-14T02:01:59;94376.19;;;6.56;39.91
7335;BME280;3708;42.632;23.378;2023-03-14T02:04:28;94384.88;;;6.38;40.14
7335;BME280;3708;42.632;23.378;2023-03-14T02:07:00;94386.50;;;6.21;41.53
7335;BME280;3708;42.632;23.378;2023-03-14T02:09:30;94384.00;;;6.29;40.96
7335;BME280;3708;42.632;23.378;2023-03-14T02:11:57;94391.13;;;6.24;40.94
7335;BME280;3708;42.632;23.378;2023-03-14T02:14:30;94391.06;;;5.96;41.88
7335;BME280;3708;42.632;23.378;2023-03-14T02:17:00;94390.72;;;6.03;42.06
7335;BME280;3708;42.632;23.378;2023-03-14T02:19:38;94386.66;;;6.10;42.17
7335;BME280;3708;42.632;23.378;2023-03-14T02:22:09;94380.72;;;6.24;41.97
7335;BME280;3708;42.632;23.378;2023-03-14T02:24:43;94378.13;;;6.37;41.93
7335;BME280;3708;42.632;23.378;2023-03-14T02:27:15;94369.06;;;6.48;41.11
7335;BME280;3708;42.632;23.378;2023-03-14T02:29:48;94368.78;;;6.23;42.25
7335;BME280;3708;42.632;23.378;2023-03-14T02:32:17;94376.41;;;6.46;41.52
7335;BME280;3708;42.632;23.378;2023-03-14T02:34:48;94371.09;;;6.38;41.41
7335;BME280;3708;42.632;23.378;2023-03-14T02:37:20;94366.00;;;6.46;41.32
7335;BME280;3708;42.632;23.378;2023-03-14T02:39:48;94362.31;;;6.47;41.28
7335;BME280;3708;42.632;23.378;2023-03-14T02:42:17;94369.25;;;6.65;41.21
7335;BME280;3708;42.632;23.378;2023-03-14T02:44:49;94369.53;;;6.77;40.35
7335;BME280;3708;42.632;23.378;2023-03-14T02:47:20;94368.47;;;6.65;38.86
7335;BME280;3708;42.632;23.378;2023-03-14T02:49:48;94373.69;;;6.65;39.74
7335;BME280;3708;42.632;23.378;2023-03-14T02:52:15;94379.63;;;6.11;39.69
7335;BME280;3708;42.632;23.378;2023-03-14T02:54:41;94382.94;;;6.44;39.50
7335;BME280;3708;42.632;23.378;2023-03-14T02:57:08;94382.09;;;5.89;41.34
7335;BME280;3708;42.632;23.378;2023-03-14T02:59:37;94394.16;;;5.29;43.37
7335;BME280;3708;42.632;23.378;2023-03-14T03:02:04;94389.13;;;5.70;43.00
7335;BME280;3708;42.632;23.378;2023-03-14T03:04:31;94390.28;;;5.64;42.25
7335;BME280;3708;42.632;23.378;2023-03-14T03:06:58;94396.06;;;5.23;43.02
7335;BME280;3708;42.632;23.378;2023-03-14T03:09:24;94391.41;;;5.58;43.21
7335;BME280;3708;42.632;23.378;2023-03-14T03:11:51;94393.16;;;5.62;42.75
7335;BME280;3708;42.632;23.378;2023-03-14T03:14:18;94387.13;;;5.48;43.62
7335;BME280;3708;42.632;23.378;2023-03-14T03:16:47;94378.75;;;5.88;41.96
7335;BME280;3708;42.632;23.378;2023-03-14T03:19:13;94382.28;;;5.41;42.78
7335;BME280;3708;42.632;23.378;2023-03-14T03:21:41;94380.59;;;5.51;43.01
7335;BME280;3708;42.632;23.378;2023-03-14T03:24:08;94389.72;;;4.92;44.05
7335;BME280;3708;42.632;23.378;2023-03-14T03:26:35;94384.97;;;4.99;44.23
7335;BME280;3708;42.632;23.378;2023-03-14T03:29:02;94380.66;;;4.71;45.50
7335;BME280;3708;42.632;23.378;2023-03-14T03:31:30;94390.84;;;4.86;45.23
7335;BME280;3708;42.632;23.378;2023-03-14T03:33:59;94385.88;;;5.27;44.15
7335;BME280;3708;42.632;23.378;2023-03-14T03:36:26;94386.03;;;5.54;43.18
7335;BME280;3708;42.632;23.378;2023-03-14T03:38:53;94382.94;;;5.33;43.74
7335;BME280;3708;42.632;23.378;2023-03-14T03:41:20;94372.75;;;5.56;43.35
7335;BME280;3708;42.632;23.378;2023-03-14T03:43:47;94377.13;;;5.74;43.11
7335;BME280;3708;42.632;23.378;2023-03-14T03:46:14;94378.38;;;5.95;43.37
7335;BME280;3708;42.632;23.378;2023-03-14T03:48:41;94388.41;;;6.15;42.58
7335;BME280;3708;42.632;23.378;2023-03-14T03:51:12;94377.78;;;5.84;42.58
7335;BME280;3708;42.632;23.378;2023-03-14T03:53:40;94388.28;;;5.93;42.82
7335;BME280;3708;42.632;23.378;2023-03-14T03:56:09;94388.88;;;6.03;42.44
7335;BME280;3708;42.632;23.378;2023-03-14T03:58:36;94399.06;;;6.00;42.28
7335;BME280;3708;42.632;23.378;2023-03-14T04:01:06;94404.13;;;5.22;44.18
7335;BME280;3708;42.632;23.378;2023-03-14T04:03:32;94401.41;;;4.71;45.35
7335;BME280;3708;42.632;23.378;2023-03-14T04:06:01;94406.13;;;4.69;45.82
7335;BME280;3708;42.632;23.378;2023-03-14T04:08:30;94402.75;;;4.45;45.95
7335;BME280;3708;42.632;23.378;2023-03-14T04:10:57;94393.28;;;4.35;46.60
7335;BME280;3708;42.632;23.378;2023-03-14T04:13:25;94402.53;;;4.18;47.16
7335;BME280;3708;42.632;23.378;2023-03-14T04:15:53;94390.06;;;4.86;46.32
7335;BME280;3708;42.632;23.378;2023-03-14T04:18:20;94390.53;;;5.30;45.57
7335;BME280;3708;42.632;23.378;2023-03-14T04:20:51;94387.75;;;5.59;44.63
7335;BME280;3708;42.632;23.378;2023-03-14T04:23:19;94368.94;;;5.80;44.33
7335;BME280;3708;42.632;23.378;2023-03-14T04:25:57;94369.72;;;5.81;43.91
7335;BME280;3708;42.632;23.378;2023-03-14T04:28:37;94366.63;;;5.79;43.63
7335;BME280;3708;42.632;23.378;2023-03-14T04:31:10;94373.06;;;5.86;43.73
7335;BME280;3708;42.632;23.378;2023-03-14T04:33:38;94358.34;;;6.09;43.56
7335;BME280;3708;42.632;23.378;2023-03-14T04:36:07;94348.84;;;6.18;43.28
7335;BME280;3708;42.632;23.378;2023-03-14T04:38:35;94354.91;;;6.27;42.57
7335;BME280;3708;42.632;23.378;2023-03-14T04:41:03;94342.94;;;6.26;42.41
7335;BME280;3708;42.632;23.378;2023-03-14T04:43:31;94348.25;;;6.21;43.01
7335;BME280;3708;42.632;23.378;2023-03-14T04:45:59;94345.16;;;6.19;43.03
7335;BME280;3708;42.632;23.378;2023-03-14T04:48:26;94347.44;;;5.93;43.53
7335;BME280;3708;42.632;23.378;2023-03-14T04:50:53;94345.84;;;6.11;43.18
7335;BME280;3708;42.632;23.378;2023-03-14T04:53:21;94352.47;;;6.17;43.17
7335;BME280;3708;42.632;23.378;2023-03-14T04:55:49;94338.16;;;6.33;43.29
7335;BME280;3708;42.632;23.378;2023-03-14T04:58:17;94337.75;;;6.40;43.85
7335;BME280;3708;42.632;23.378;2023-03-14T05:00:44;94336.69;;;6.41;42.89
7335;BME280;3708;42.632;23.378;2023-03-14T05:03:12;94328.53;;;6.34;42.86
7335;BME280;3708;42.632;23.378;2023-03-14T05:05:39;94325.69;;;6.30;42.25
7335;BME280;3708;42.632;23.378;2023-03-14T05:08:06;94332.84;;;6.11;42.70
7335;BME280;3708;42.632;23.378;2023-03-14T05:10:35;94325.59;;;6.22;42.45
7335;BME280;3708;42.632;23.378;2023-03-14T05:13:03;94335.94;;;6.40;42.26
7335;BME280;3708;42.632;23.378;2023-03-14T05:15:31;94333.44;;;6.35;42.22
7335;BME280;3708;42.632;23.378;2023-03-14T05:17:58;94331.22;;;6.29;42.35
7335;BME280;3708;42.632;23.378;2023-03-14T05:20:25;94334.09;;;6.41;42.65
7335;BME280;3708;42.632;23.378;2023-03-14T05:22:52;94336.41;;;6.42;42.75
7335;BME280;3708;42.632;23.378;2023-03-14T05:25:21;94335.34;;;6.57;42.29
7335;BME280;3708;42.632;23.378;2023-03-14T05:27:50;94325.09;;;6.74;41.84
7335;BME280;3708;42.632;23.378;2023-03-14T05:30:20;94326.91;;;6.87;41.34
7335;BME280;3708;42.632;23.378;2023-03-14T05:32:56;94329.34;;;6.70;41.23
7335;BME280;3708;42.632;23.378;2023-03-14T05:35:41;94335.13;;;6.67;40.88
7335;BME280;3708;42.632;23.378;2023-03-14T05:38:09;94326.47;;;6.58;41.45
7335;BME280;3708;42.632;23.378;2023-03-14T05:40:40;94325.75;;;6.79;41.78
7335;BME280;3708;42.632;23.378;2023-03-14T05:43:14;94325.56;;;6.89;41.08
7335;BME280;3708;42.632;23.378;2023-03-14T05:45:53;94325.94;;;6.83;41.83
7335;BME280;3708;42.632;23.378;2023-03-14T05:48:36;94334.25;;;6.71;42.58
7335;BME280;3708;42.632;23.378;2023-03-14T05:51:04;94329.13;;;6.80;43.00
7335;BME280;3708;42.632;23.378;2023-03-14T05:53:33;94316.94;;;7.03;42.67
7335;BME280;3708;42.632;23.378;2023-03-14T05:56:31;94326.47;;;7.07;42.71
7335;BME280;3708;42.632;23.378;2023-03-14T05:59:30;94325.38;;;7.22;42.49
7335;BME280;3708;42.632;23.378;2023-03-14T06:05:14;94327.50;;;7.42;42.04
7335;BME280;3708;42.632;23.378;2023-03-14T06:08:03;94320.66;;;7.46;41.87
7335;BME280;3708;42.632;23.378;2023-03-14T06:10:46;94323.94;;;7.60;41.69
7335;BME280;3708;42.632;23.378;2023-03-14T06:13:18;94332.00;;;7.50;41.79
7335;BME280;3708;42.632;23.378;2023-03-14T06:15:46;94319.91;;;7.76;40.98
7335;BME280;3708;42.632;23.378;2023-03-14T06:18:16;94324.88;;;7.64;41.21
7335;BME280;3708;42.632;23.378;2023-03-14T06:20:56;94315.78;;;7.84;41.31
7335;BME280;3708;42.632;23.378;2023-03-14T06:23:26;94322.00;;;7.96;40.95
7335;BME280;3708;42.632;23.378;2023-03-14T06:25:59;94320.28;;;7.92;40.57
7335;BME280;3708;42.632;23.378;2023-03-14T06:28:32;94324.63;;;8.05;40.94
7335;BME280;3708;42.632;23.378;2023-03-14T06:31:01;94326.66;;;8.08;40.28
7335;BME280;3708;42.632;23.378;2023-03-14T06:33:32;94329.91;;;8.13;40.18
7335;BME280;3708;42.632;23.378;2023-03-14T06:36:15;94324.44;;;8.23;40.25
7335;BME280;3708;42.632;23.378;2023-03-14T06:38:45;94325.41;;;8.27;40.23
7335;BME280;3708;42.632;23.378;2023-03-14T06:41:15;94326.66;;;8.38;40.05
7335;BME280;3708;42.632;23.378;2023-03-14T06:43:51;94327.63;;;8.51;39.21
7335;BME280;3708;42.632;23.378;2023-03-14T06:46:20;94318.59;;;8.66;39.26
7335;BME280;3708;42.632;23.378;2023-03-14T06:48:50;94315.00;;;8.44;39.27
7335;BME280;3708;42.632;23.378;2023-03-14T06:51:26;94316.13;;;8.69;38.62
7335;BME280;3708;42.632;23.378;2023-03-14T06:53:57;94310.78;;;8.83;38.08
7335;BME280;3708;42.632;23.378;2023-03-14T06:56:46;94308.81;;;8.97;37.76
7335;BME280;3708;42.632;23.378;2023-03-14T06:59:15;94306.34;;;9.09;37.57
7335;BME280;3708;42.632;23.378;2023-03-14T07:01:43;94301.06;;;8.58;37.74
7335;BME280;3708;42.632;23.378;2023-03-14T07:04:18;94302.63;;;8.84;38.10
7335;BME280;3708;42.632;23.378;2023-03-14T07:06:55;94304.34;;;9.23;37.99
7335;BME280;3708;42.632;23.378;2023-03-14T07:09:29;94291.59;;;9.13;36.87
7335;BME280;3708;42.632;23.378;2023-03-14T07:12:11;94288.84;;;9.18;36.48
7335;BME280;3708;42.632;23.378;2023-03-14T07:14:47;94291.13;;;9.28;36.66
7335;BME280;3708;42.632;23.378;2023-03-14T07:17:20;94279.31;;;9.22;37.11
7335;BME280;3708;42.632;23.378;2023-03-14T07:19:51;94277.44;;;9.48;37.41
7335;BME280;3708;42.632;23.378;2023-03-14T07:22:30;94288.06;;;9.26;36.97
7335;BME280;3708;42.632;23.378;2023-03-14T07:24:59;94286.38;;;9.04;37.26
7335;BME280;3708;42.632;23.378;2023-03-14T07:27:56;94282.81;;;9.35;37.29
7335;BME280;3708;42.632;23.378;2023-03-14T07:30:26;94288.38;;;9.42;36.63
7335;BME280;3708;42.632;23.378;2023-03-14T07:33:03;94284.06;;;9.37;37.02
7335;BME280;3708;42.632;23.378;2023-03-14T07:35:30;94269.63;;;9.31;36.85
7335;BME280;3708;42.632;23.378;2023-03-14T07:38:22;94270.50;;;9.61;36.68
7335;BME280;3708;42.632;23.378;2023-03-14T07:41:01;94269.66;;;9.86;35.96
7335;BME280;3708;42.632;23.378;2023-03-14T07:43:36;94268.19;;;9.59;36.02
7335;BME280;3708;42.632;23.378;2023-03-14T07:48:52;94266.22;;;10.03;35.74
7335;BME280;3708;42.632;23.378;2023-03-14T07:51:20;94267.34;;;9.84;35.57
7335;BME280;3708;42.632;23.378;2023-03-14T07:54:05;94253.66;;;10.25;35.39
7335;BME280;3708;42.632;23.378;2023-03-14T07:56:37;94255.31;;;10.59;34.33
7335;BME280;3708;42.632;23.378;2023-03-14T07:59:06;94251.00;;;10.84;34.10
7335;BME280;3708;42.632;23.378;2023-03-14T08:02:08;94252.53;;;11.05;33.48
7335;BME280;3708;42.632;23.378;2023-03-14T08:05:01;94252.03;;;10.91;33.67
7335;BME280;3708;42.632;23.378;2023-03-14T08:07:38;94253.84;;;10.99;33.46
7335;BME280;3708;42.632;23.378;2023-03-14T08:10:17;94257.66;;;11.22;33.20
7335;BME280;3708;42.632;23.378;2023-03-14T08:12:54;94253.19;;;11.56;32.92
7335;BME280;3708;42.632;23.378;2023-03-14T08:15:26;94246.84;;;11.57;32.28
7335;BME280;3708;42.632;23.378;2023-03-14T08:17:55;94244.41;;;11.51;32.34
7335;BME280;3708;42.632;23.378;2023-03-14T08:20:28;94253.63;;;11.58;32.43
7335;BME280;3708;42.632;23.378;2023-03-14T08:23:05;94255.00;;;11.76;32.29
7335;BME280;3708;42.632;23.378;2023-03-14T08:25:43;94249.38;;;11.65;32.78
7335;BME280;3708;42.632;23.378;2023-03-14T08:28:16;94247.03;;;11.84;32.90
7335;BME280;3708;42.632;23.378;2023-03-14T08:31:02;94245.66;;;12.11;32.58
7335;BME280;3708;42.632;23.378;2023-03-14T08:33:33;94246.63;;;12.06;32.10
7335;BME280;3708;42.632;23.378;2023-03-14T08:36:06;94240.94;;;11.92;32.67
7335;BME280;3708;42.632;23.378;2023-03-14T08:38:49;94242.16;;;12.07;31.45
7335;BME280;3708;42.632;23.378;2023-03-14T08:41:35;94228.69;;;11.96;32.09
7335;BME280;3708;42.632;23.378;2023-03-14T08:44:11;94233.94;;;12.45;33.08
7335;BME280;3708;42.632;23.378;2023-03-14T08:46:45;94228.13;;;11.91;32.17
7335;BME280;3708;42.632;23.378;2023-03-14T08:49:25;94221.16;;;12.19;32.51
7335;BME280;3708;42.632;23.378;2023-03-14T08:51:59;94223.97;;;12.62;31.95
7335;BME280;3708;42.632;23.378;2023-03-14T08:54:41;94224.50;;;12.56;31.45
7335;BME280;3708;42.632;23.378;2023-03-14T08:57:20;94211.81;;;12.70;31.62
7335;BME280;3708;42.632;23.378;2023-03-14T08:59:53;94213.44;;;13.14;31.08
7335;BME280;3708;42.632;23.378;2023-03-14T09:02:34;94209.13;;;13.49;31.22
7335;BME280;3708;42.632;23.378;2023-03-14T09:05:10;94201.78;;;13.86;31.00
7335;BME280;3708;42.632;23.378;2023-03-14T09:07:58;94197.28;;;14.18;29.19
7335;BME280;3708;42.632;23.378;2023-03-14T09:10:38;94194.22;;;14.16;28.53
7335;BME280;3708;42.632;23.378;2023-03-14T09:13:13;94192.84;;;14.22;28.12
7335;BME280;3708;42.632;23.378;2023-03-14T09:15:41;94186.13;;;14.24;28.58
7335;BME280;3708;42.632;23.378;2023-03-14T09:18:09;94177.38;;;14.20;29.26
7335;BME280;3708;42.632;23.378;2023-03-14T09:20:42;94165.44;;;14.58;28.90
7335;BME280;3708;42.632;23.378;2023-03-14T09:23:09;94162.69;;;14.70;28.56
7335;BME280;3708;42.632;23.378;2023-03-14T09:25:38;94165.63;;;15.03;28.03
7335;BME280;3708;42.632;23.378;2023-03-14T09:28:15;94154.69;;;15.23;27.82
7335;BME280;3708;42.632;23.378;2023-03-14T09:30:50;94147.97;;;15.07;27.93
7335;BME280;3708;42.632;23.378;2023-03-14T09:33:48;94140.53;;;15.12;27.09
7335;BME280;3708;42.632;23.378;2023-03-14T09:36:24;94128.81;;;14.91;27.63
7335;BME280;3708;42.632;23.378;2023-03-14T09:38:57;94134.16;;;15.13;27.61
7335;BME280;3708;42.632;23.378;2023-03-14T09:41:36;94134.03;;;15.29;27.50
7335;BME280;3708;42.632;23.378;2023-03-14T09:44:11;94126.81;;;14.15;28.20
7335;BME280;3708;42.632;23.378;2023-03-14T09:46:44;94120.59;;;14.38;27.52
7335;BME280;3708;42.632;23.378;2023-03-14T09:49:20;94114.41;;;13.65;28.81
7335;BME280;3708;42.632;23.378;2023-03-14T09:51:55;94099.28;;;13.62;29.11
7335;BME280;3708;42.632;23.378;2023-03-14T09:54:33;94105.97;;;14.41;29.05
7335;BME280;3708;42.632;23.378;2023-03-14T09:57:11;94092.66;;;14.91;28.74
7335;BME280;3708;42.632;23.378;2023-03-14T09:59:47;94096.47;;;14.94;29.31
7335;BME280;3708;42.632;23.378;2023-03-14T10:02:24;94090.41;;;14.71;29.85
7335;BME280;3708;42.632;23.378;2023-03-14T10:05:14;94086.25;;;14.92;28.93
7335;BME280;3708;42.632;23.378;2023-03-14T10:08:14;94081.13;;;15.41;28.41
7335;BME280;3708;42.632;23.378;2023-03-14T10:10:44;94082.69;;;15.68;28.24
7335;BME280;3708;42.632;23.378;2023-03-14T10:13:18;94078.09;;;16.40;27.58
7335;BME280;3708;42.632;23.378;2023-03-14T10:15:55;94080.44;;;16.49;27.56
7335;BME280;3708;42.632;23.378;2023-03-14T10:18:28;94072.66;;;16.30;27.36
7335;BME280;3708;42.632;23.378;2023-03-14T10:21:16;94067.72;;;16.28;27.97
7335;BME280;3708;42.632;23.378;2023-03-14T10:24:08;94052.97;;;16.53;27.93
7335;BME280;3708;42.632;23.378;2023-03-14T10:26:40;94050.50;;;17.04;27.51
7335;BME280;3708;42.632;23.378;2023-03-14T10:29:10;94036.84;;;16.99;27.98
7335;BME280;3708;42.632;23.378;2023-03-14T10:31:54;94027.91;;;17.14;27.64
7335;BME280;3708;42.632;23.378;2023-03-14T10:34:28;94029.53;;;17.25;27.21
7335;BME280;3708;42.632;23.378;2023-03-14T10:37:06;94018.53;;;17.64;27.04
7335;BME280;3708;42.632;23.378;2023-03-14T10:39:41;94009.03;;;17.59;26.35
7335;BME280;3708;42.632;23.378;2023-03-14T10:42:18;93999.72;;;17.83;26.23
7335;BME280;3708;42.632;23.378;2023-03-14T10:44:54;93995.75;;;18.17;25.91
7335;BME280;3708;42.632;23.378;2023-03-14T10:47:45;93998.22;;;18.57;25.56
7335;BME280;3708;42.632;23.378;2023-03-14T10:50:26;93990.63;;;18.59;26.46
7335;BME280;3708;42.632;23.378;2023-03-14T10:52:55;93977.44;;;18.77;25.51
7335;BME280;3708;42.632;23.378;2023-03-14T10:55:24;93971.44;;;19.26;24.75
7335;BME280;3708;42.632;23.378;2023-03-14T10:58:25;93960.78;;;19.12;24.47
7335;BME280;3708;42.632;23.378;2023-03-14T11:01:06;93954.00;;;19.39;24.13
7335;BME280;3708;42.632;23.378;2023-03-14T11:03:52;93947.19;;;19.38;24.24
7335;BME280;3708;42.632;23.378;2023-03-14T11:06:28;93944.91;;;19.47;24.59
7335;BME280;3708;42.632;23.378;2023-03-14T11:09:07;93939.16;;;19.66;24.01
7335;BME280;3708;42.632;23.378;2023-03-14T11:11:39;93937.28;;;19.66;23.99
7335;BME280;3708;42.632;23.378;2023-03-14T11:14:22;93922.75;;;19.99;23.77
7335;BME280;3708;42.632;23.378;2023-03-14T11:16:54;93924.28;;;20.00;23.34
7335;BME280;3708;42.632;23.378;2023-03-14T11:19:40;93915.22;;;19.84;23.15
7335;BME280;3708;42.632;23.378;2023-03-14T11:22:23;93912.84;;;20.10;23.24
7335;BME280;3708;42.632;23.378;2023-03-14T11:25:21;93900.09;;;19.59;22.89
7335;BME280;3708;42.632;23.378;2023-03-14T11:28:17;93893.25;;;19.62;23.20
7335;BME280;3708;42.632;23.378;2023-03-14T11:30:51;93887.94;;;19.55;23.10
7335;BME280;3708;42.632;23.378;2023-03-14T11:33:24;93865.94;;;19.58;22.97
7335;BME280;3708;42.632;23.378;2023-03-14T11:36:11;93861.16;;;20.18;23.37
7335;BME280;3708;42.632;23.378;2023-03-14T11:38:50;93865.41;;;20.71;22.38
7335;BME280;3708;42.632;23.378;2023-03-14T11:41:24;93850.66;;;21.14;21.30
7335;BME280;3708;42.632;23.378;2023-03-14T11:43:55;93843.59;;;21.38;21.59
7335;BME280;3708;42.632;23.378;2023-03-14T11:46:27;93850.44;;;21.76;21.01
7335;BME280;3708;42.632;23.378;2023-03-14T11:49:06;93842.75;;;21.48;20.63
7335;BME280;3708;42.632;23.378;2023-03-14T11:51:42;93837.78;;;21.83;20.23
7335;BME280;3708;42.632;23.378;2023-03-14T11:54:49;93834.16;;;21.63;20.67
7335;BME280;3708;42.632;23.378;2023-03-14T11:57:22;93825.16;;;21.91;20.63
7335;BME280;3708;42.632;23.378;2023-03-14T11:59:53;93816.47;;;22.40;20.35
7335;BME280;3708;42.632;23.378;2023-03-14T12:02:38;93814.19;;;22.92;19.89
7335;BME280;3708;42.632;23.378;2023-03-14T12:05:35;93813.22;;;23.48;19.95
7335;BME280;3708;42.632;23.378;2023-03-14T12:08:41;93812.56;;;23.84;18.97
7335;BME280;3708;42.632;23.378;2023-03-14T12:11:18;93790.13;;;23.78;18.87
7335;BME280;3708;42.632;23.378;2023-03-14T12:13:50;93794.78;;;23.93;18.39
7335;BME280;3708;42.632;23.378;2023-03-14T12:16:32;93790.97;;;24.30;18.41
7335;BME280;3708;42.632;23.378;2023-03-14T12:19:38;93779.72;;;24.71;18.34
7335;BME280;3708;42.632;23.378;2023-03-14T12:22:24;93774.13;;;24.81;18.36
7335;BME280;3708;42.632;23.378;2023-03-14T12:25:00;93765.84;;;24.76;17.91
7335;BME280;3708;42.632;23.378;2023-03-14T12:27:44;93757.94;;;24.01;18.03
7335;BME280;3708;42.632;23.378;2023-03-14T12:30:21;93766.09;;;23.94;18.70
7335;BME280;3708;42.632;23.378;2023-03-14T12:33:30;93768.34;;;23.17;18.47
7335;BME280;3708;42.632;23.378;2023-03-14T12:36:00;93758.59;;;23.69;18.72
7335;BME280;3708;42.632;23.378;2023-03-14T12:41:21;93744.91;;;25.32;17.66
7335;BME280;3708;42.632;23.378;2023-03-14T12:43:52;93742.03;;;25.10;17.23
7335;BME280;3708;42.632;23.378;2023-03-14T12:46:23;93743.09;;;25.13;17.35
7335;BME280;3708;42.632;23.378;2023-03-14T12:49:04;93737.84;;;25.38;17.30
7335;BME280;3708;42.632;23.378;2023-03-14T12:51:38;93740.25;;;25.20;17.21
7335;BME280;3708;42.632;23.378;2023-03-14T12:54:25;93731.38;;;25.23;17.17
7335;BME280;3708;42.632;23.378;2023-03-14T12:57:22;93726.09;;;24.58;17.17
7335;BME280;3708;42.632;23.378;2023-03-14T12:59:56;93722.75;;;23.67;18.22
7335;BME280;3708;42.632;23.378;2023-03-14T13:02:28;93718.25;;;24.15;18.03
7335;BME280;3708;42.632;23.378;2023-03-14T13:05:29;93704.16;;;24.79;17.07
7335;BME280;3708;42.632;23.378;2023-03-14T13:08:43;93700.31;;;25.09;16.73
7335;BME280;3708;42.632;23.378;2023-03-14T13:11:47;93694.72;;;24.75;16.94
7335;BME280;3708;42.632;23.378;2023-03-14T13:14:43;93684.97;;;24.97;16.79
7335;BME280;3708;42.632;23.378;2023-03-14T13:17:26;93682.34;;;25.22;16.70
7335;BME280;3708;42.632;23.378;2023-03-14T13:19:56;93677.91;;;25.86;17.00
7335;BME280;3708;42.632;23.378;2023-03-14T13:22:51;93683.34;;;26.07;16.52
7335;BME280;3708;42.632;23.378;2023-03-14T13:25:29;93675.81;;;25.23;16.99
7335;BME280;3708;42.632;23.378;2023-03-14T13:27:57;93665.09;;;24.50;17.12
7335;BME280;3708;42.632;23.378;2023-03-14T13:30:38;93656.53;;;23.90;17.57
7335;BME280;3708;42.632;23.378;2023-03-14T13:33:06;93658.59;;;24.35;16.96
7335;BME280;3708;42.632;23.378;2023-03-14T13:35:39;93652.31;;;24.41;18.26
7335;BME280;3708;42.632;23.378;2023-03-14T13:38:20;93650.97;;;24.17;17.12
7335;BME280;3708;42.632;23.378;2023-03-14T13:41:45;93626.75;;;24.97;17.01
7335;BME280;3708;42.632;23.378;2023-03-14T13:44:29;93625.78;;;24.91;17.08
7335;BME280;3708;42.632;23.378;2023-03-14T13:47:19;93626.38;;;25.12;16.70
7335;BME280;3708;42.632;23.378;2023-03-14T13:50:11;93616.69;;;25.43;16.77
7335;BME280;3708;42.632;23.378;2023-03-14T13:52:44;93613.59;;;25.57;16.66
7335;BME280;3708;42.632;23.378;2023-03-14T13:55:17;93607.91;;;25.80;17.02
7335;BME280;3708;42.632;23.378;2023-03-14T13:57:48;93597.56;;;26.41;15.99
7335;BME280;3708;42.632;23.378;2023-03-14T14:00:22;93592.19;;;26.41;15.68
7335;BME280;3708;42.632;23.378;2023-03-14T14:02:52;93597.75;;;26.47;15.48
7335;BME280;3708;42.632;23.378;2023-03-14T14:05:20;93585.22;;;26.66;15.52